createdAt,value
2022-09-15T00:00:31.476Z,68.82
2022-09-15T00:03:20.790Z,70.97
2022-09-15T00:06:12.372Z,71.32
2022-09-15T00:09:00.774Z,70.88
2022-09-15T00:12:00.117Z,70.88
2022-09-15T00:14:48.432Z,69.93
2022-09-15T00:17:50.699Z,70.13
2022-09-15T00:20:42.049Z,69.82
2022-09-15T00:23:30.326Z,69.80
2022-09-15T00:26:27.478Z,68.70
2022-09-15T00:29:17.153Z,70.45
2022-09-15T00:32:11.545Z,70.22
2022-09-15T00:34:59.925Z,70.30
2022-09-15T00:37:48.247Z,69.80
2022-09-15T00:40:45.489Z,70.65
2022-09-15T00:43:46.845Z,70.32
2022-09-15T00:46:39.622Z,71.72
2022-09-15T00:49:37.574Z,72.07
2022-09-15T00:52:33.428Z,72.00
2022-09-15T00:55:27.632Z,73.03
2022-09-15T00:58:19.855Z,73.90
2022-09-15T01:01:09.819Z,76.00
2022-09-15T01:04:08.891Z,78.10
2022-09-15T01:07:00.677Z,76.13
2022-09-15T01:09:53.851Z,75.28
2022-09-15T01:12:42.911Z,72.10
2022-09-15T01:15:48.115Z,73.47
2022-09-15T01:18:43.937Z,73.97
2022-09-15T01:21:42.874Z,74.65
2022-09-15T01:24:55.381Z,73.32
2022-09-15T01:28:37.309Z,73.72
2022-09-15T01:31:31.441Z,79.30
2022-09-15T01:34:21.229Z,78.95
2022-09-15T01:37:15.898Z,77.65
2022-09-15T01:40:05.146Z,82.25
2022-09-15T01:43:03.211Z,80.03
2022-09-15T01:45:53.121Z,82.47
2022-09-15T01:48:44.549Z,83.35
2022-09-15T01:51:35.443Z,81.88
2022-09-15T01:54:33.852Z,80.65
2022-09-15T01:57:23.095Z,80.85
2022-09-15T02:00:15.305Z,80.00
2022-09-15T02:03:11.815Z,82.30
2022-09-15T02:06:07.387Z,79.63
2022-09-15T02:09:01.523Z,80.72
2022-09-15T02:11:55.450Z,86.10
2022-09-15T02:14:55.471Z,84.82
2022-09-15T02:17:50.662Z,89.10
2022-09-15T02:20:45.247Z,90.40
2022-09-15T02:23:40.176Z,95.60
2022-09-15T02:26:30.482Z,91.18
2022-09-15T02:29:30.152Z,91.80
2022-09-15T02:32:23.265Z,89.57
2022-09-15T02:35:13.387Z,89.82
2022-09-15T02:38:04.379Z,89.80
2022-09-15T02:40:54.294Z,89.50
2022-09-15T02:43:50.336Z,87.00
2022-09-15T02:46:39.279Z,88.50
2022-09-15T02:49:36.587Z,85.28
2022-09-15T02:52:25.497Z,83.53
2022-09-15T02:55:23.278Z,83.97
2022-09-15T02:58:12.941Z,81.10
2022-09-15T03:01:11.188Z,78.50
2022-09-15T03:04:00.297Z,78.57
2022-09-15T03:06:57.436Z,77.38
2022-09-15T03:09:46.207Z,78.97
2022-09-15T03:12:45.608Z,78.72
2022-09-15T03:15:35.633Z,76.50
2022-09-15T03:18:32.146Z,75.65
2022-09-15T03:21:20.727Z,77.97
2022-09-15T03:24:19.343Z,75.75
2022-09-15T03:27:07.606Z,76.18
2022-09-15T03:30:05.834Z,76.57
2022-09-15T03:32:55.512Z,76.57
2022-09-15T03:35:53.375Z,74.40
2022-09-15T03:38:41.942Z,78.40
2022-09-15T03:41:30.346Z,77.38
2022-09-15T03:44:27.894Z,78.00
2022-09-15T03:47:16.295Z,79.78
2022-09-15T03:50:15.010Z,81.03
2022-09-15T03:53:03.307Z,81.75
2022-09-15T03:56:10.766Z,82.47
2022-09-15T03:58:59.182Z,82.78
2022-09-15T04:01:56.368Z,83.53
2022-09-15T04:04:44.707Z,81.72
2022-09-15T04:07:37.629Z,82.65
2022-09-15T04:10:26.056Z,81.30
2022-09-15T04:13:17.432Z,82.55
2022-09-15T04:16:08.231Z,83.38
2022-09-15T04:18:57.604Z,83.22
2022-09-15T04:21:47.521Z,84.40
2022-09-15T04:24:37.369Z,83.35
2022-09-15T04:27:34.454Z,84.97
2022-09-15T04:30:23.009Z,84.15
2022-09-15T04:33:11.352Z,84.07
2022-09-15T04:36:00.367Z,84.07
2022-09-15T04:38:49.048Z,84.10
2022-09-15T04:41:39.383Z,83.95
2022-09-15T04:44:36.775Z,84.53
2022-09-15T04:47:25.122Z,83.20
2022-09-15T04:50:13.571Z,83.90
2022-09-15T04:53:01.861Z,81.80
2022-09-15T04:56:03.465Z,82.30
2022-09-15T04:58:57.274Z,81.38
2022-09-15T05:01:48.718Z,80.72
2022-09-15T05:04:43.067Z,80.57
2022-09-15T05:07:31.539Z,80.65
2022-09-15T05:10:19.886Z,80.05
2022-09-15T05:13:08.146Z,79.50
2022-09-15T05:15:57.976Z,77.88
2022-09-15T05:18:57.613Z,76.68
2022-09-15T05:21:45.891Z,77.38
2022-09-15T05:24:43.372Z,77.05
2022-09-15T05:27:32.831Z,75.13
2022-09-15T05:30:38.037Z,74.78
2022-09-15T05:33:29.361Z,74.18
2022-09-15T05:36:27.085Z,73.20
2022-09-15T05:39:15.522Z,73.45
2022-09-15T05:42:04.079Z,71.32
2022-09-15T05:44:58.518Z,69.68
2022-09-15T05:47:46.917Z,69.22
2022-09-15T05:50:50.397Z,69.13
2022-09-15T05:53:38.856Z,67.50
2022-09-15T05:56:33.244Z,66.60
2022-09-15T05:59:21.538Z,65.45
2022-09-15T06:02:16.121Z,65.57
2022-09-15T06:05:04.536Z,64.60
2022-09-15T06:07:55.150Z,63.15
2022-09-15T06:10:43.772Z,62.40
2022-09-15T06:13:32.284Z,62.22
2022-09-15T06:16:23.371Z,60.88
2022-09-15T06:19:11.708Z,60.13
2022-09-15T06:22:08.894Z,59.10
2022-09-15T06:24:58.537Z,57.83
2022-09-15T06:27:55.602Z,56.70
2022-09-15T06:30:48.966Z,55.63
2022-09-15T06:33:37.393Z,56.88
2022-09-15T06:36:31.154Z,55.58
2022-09-15T06:39:19.440Z,55.45
2022-09-15T06:42:10.341Z,53.92
2022-09-15T06:45:04.414Z,54.22
2022-09-15T06:48:23.595Z,55.28
2022-09-15T06:51:12.758Z,57.83
2022-09-15T06:54:00.966Z,57.70
2022-09-15T06:56:55.481Z,58.00
2022-09-15T06:59:45.156Z,58.08
2022-09-15T07:02:39.655Z,57.92
2022-09-15T07:05:28.527Z,57.92
2022-09-15T07:08:22.987Z,57.35
2022-09-15T07:11:11.664Z,55.53
2022-09-15T07:14:06.229Z,55.28
2022-09-15T07:16:55.948Z,55.58
2022-09-15T07:19:45.399Z,54.03
2022-09-15T07:22:33.797Z,54.08
2022-09-15T07:25:22.290Z,46.80
2022-09-15T07:28:11.160Z,38.35
2022-09-15T07:30:59.493Z,31.10
2022-09-15T07:33:49.811Z,30.10
2022-09-15T07:36:38.553Z,29.42
2022-09-15T07:39:26.967Z,31.08
2022-09-15T07:42:15.591Z,32.95
2022-09-15T07:45:05.593Z,36.47
2022-09-15T07:47:54.611Z,39.22
2022-09-15T07:50:47.913Z,42.00
2022-09-15T07:53:36.383Z,46.00
2022-09-15T07:56:25.274Z,49.53
2022-09-15T07:59:13.696Z,52.90
2022-09-15T08:02:02.083Z,55.72
2022-09-15T08:04:58.076Z,57.30
2022-09-15T08:07:47.862Z,59.25
2022-09-15T08:10:39.161Z,61.10
2022-09-15T08:13:27.559Z,63.72
2022-09-15T08:16:18.095Z,65.15
2022-09-15T08:19:06.617Z,67.70
2022-09-15T08:22:01.809Z,67.07
2022-09-15T08:24:51.505Z,66.45
2022-09-15T08:27:39.990Z,65.60
2022-09-15T08:30:29.058Z,65.18
2022-09-15T08:33:17.461Z,69.28
2022-09-15T08:36:08.227Z,61.60
2022-09-15T08:38:57.021Z,61.55
2022-09-15T08:41:49.347Z,62.83
2022-09-15T08:44:44.369Z,63.20
2022-09-15T08:47:37.352Z,62.40
2022-09-15T08:50:30.034Z,58.85
2022-09-15T08:53:23.711Z,58.67
2022-09-15T08:56:17.153Z,57.58
2022-09-15T08:59:06.889Z,56.20
2022-09-15T09:02:29.598Z,54.15
2022-09-15T09:05:37.074Z,48.97
2022-09-15T09:08:42.034Z,44.38
2022-09-15T09:11:43.853Z,41.95
2022-09-15T09:14:44.831Z,37.33
2022-09-15T09:17:47.230Z,33.78
2022-09-15T09:20:50.041Z,31.38
2022-09-15T09:23:44.286Z,31.13
2022-09-15T09:26:35.866Z,29.83
2022-09-15T09:29:31.862Z,27.20
2022-09-15T09:32:24.673Z,27.15
2022-09-15T09:35:21.704Z,27.08
2022-09-15T09:38:11.234Z,27.50
2022-09-15T09:41:02.576Z,26.38
2022-09-15T09:43:53.459Z,25.38
2022-09-15T09:46:42.480Z,24.08
2022-09-15T09:49:44.377Z,23.13
2022-09-15T09:52:37.336Z,21.55
2022-09-15T09:55:27.929Z,20.60
2022-09-15T09:58:20.905Z,20.27
2022-09-15T10:01:11.945Z,16.33
2022-09-15T10:04:19.188Z,15.85
2022-09-15T10:07:10.036Z,15.15
2022-09-15T10:10:00.942Z,15.05
2022-09-15T10:12:50.486Z,15.50
2022-09-15T10:15:45.171Z,15.80
2022-09-15T10:18:35.467Z,15.93
2022-09-15T10:21:29.670Z,15.93
2022-09-15T10:24:36.267Z,15.35
2022-09-15T10:27:31.678Z,15.68
2022-09-15T10:30:20.854Z,16.52
2022-09-15T10:33:20.924Z,16.95
2022-09-15T10:36:15.217Z,17.83
2022-09-15T10:39:12.051Z,18.73
2022-09-15T10:42:14.043Z,19.80
2022-09-15T10:45:16.067Z,21.42
2022-09-15T10:48:25.581Z,23.10
2022-09-15T10:51:33.542Z,24.35
2022-09-15T10:54:45.487Z,25.40
2022-09-15T10:57:55.509Z,26.27
2022-09-15T11:00:56.203Z,26.50
2022-09-15T11:04:30.510Z,27.10
2022-09-15T11:07:30.392Z,28.92
2022-09-15T11:10:27.023Z,29.63
2022-09-15T11:13:27.371Z,29.67
2022-09-15T11:16:29.509Z,31.63
2022-09-15T11:19:33.794Z,30.17
2022-09-15T11:22:27.265Z,28.85
2022-09-15T11:25:20.703Z,27.23
2022-09-15T11:28:19.221Z,25.35
2022-09-15T11:31:16.513Z,27.25
2022-09-15T11:34:12.761Z,27.35
2022-09-15T11:37:07.307Z,28.92
2022-09-15T11:40:01.101Z,27.52
2022-09-15T11:42:54.555Z,25.00
2022-09-15T11:45:49.802Z,23.10
2022-09-15T11:48:46.197Z,22.98
2022-09-15T11:51:41.771Z,23.25
2022-09-15T11:54:37.555Z,22.27
2022-09-15T11:57:31.745Z,18.90
2022-09-15T12:00:21.664Z,16.88
2022-09-15T12:03:19.367Z,15.77
2022-09-15T12:06:16.301Z,12.93
2022-09-15T12:09:06.773Z,10.82
2022-09-15T12:11:59.621Z,10.20
2022-09-15T12:14:50.393Z,9.88
2022-09-15T12:17:46.560Z,8.95
2022-09-15T12:20:40.874Z,9.57
2022-09-15T12:23:35.098Z,8.80
2022-09-15T12:26:26.239Z,9.45
2022-09-15T12:29:42.483Z,9.27
2022-09-15T12:32:33.292Z,9.77
2022-09-15T12:35:33.313Z,10.30
2022-09-15T12:38:24.288Z,10.50
2022-09-15T12:41:14.258Z,10.57
2022-09-15T12:44:21.140Z,10.80
2022-09-15T12:47:21.983Z,11.10
2022-09-15T12:50:25.298Z,12.10
2022-09-15T12:53:20.266Z,12.23
2022-09-15T12:56:12.050Z,12.20
2022-09-15T12:59:08.078Z,12.90
2022-09-15T13:01:57.683Z,13.23
2022-09-15T13:04:55.501Z,13.68
2022-09-15T13:08:01.648Z,13.02
2022-09-15T13:11:02.995Z,13.30
2022-09-15T13:13:54.471Z,13.77
2022-09-15T13:16:51.822Z,14.30
2022-09-15T13:19:46.751Z,14.10
2022-09-15T13:22:38.511Z,14.25
2022-09-15T13:25:30.364Z,14.80
2022-09-15T13:28:19.017Z,15.35
2022-09-15T13:31:22.172Z,15.32
2022-09-15T13:35:04.317Z,15.88
2022-09-15T13:38:26.473Z,15.75
2022-09-15T13:41:46.265Z,15.20
2022-09-15T13:45:17.566Z,15.02
2022-09-15T13:48:24.172Z,15.70
2022-09-15T13:51:20.672Z,15.70
2022-09-15T13:54:18.972Z,16.55
2022-09-15T13:57:07.328Z,18.00
2022-09-15T13:59:58.504Z,17.35
2022-09-15T14:02:49.928Z,17.67
2022-09-15T14:05:38.666Z,17.92
2022-09-15T14:08:35.053Z,18.70
2022-09-15T14:11:27.704Z,18.30
2022-09-15T14:14:35.586Z,17.38
2022-09-15T14:17:25.438Z,16.08
2022-09-15T14:20:26.171Z,15.48
2022-09-15T14:23:17.387Z,16.00
2022-09-15T14:26:14.857Z,16.30
2022-09-15T14:29:05.573Z,16.48
2022-09-15T14:31:55.096Z,15.30
2022-09-15T14:34:54.218Z,15.98
2022-09-15T14:37:42.539Z,15.75
2022-09-15T14:40:33.646Z,17.30
2022-09-15T14:43:33.117Z,17.50
2022-09-15T14:46:21.477Z,18.30
2022-09-15T14:49:16.829Z,18.83
2022-09-15T14:52:05.594Z,18.85
2022-09-15T14:55:04.999Z,19.45
2022-09-15T14:57:58.693Z,19.80
2022-09-15T15:01:13.745Z,19.13
2022-09-15T15:04:17.060Z,20.05
2022-09-15T15:07:15.058Z,20.70
2022-09-15T15:10:07.168Z,21.42
2022-09-15T15:12:59.860Z,22.00
2022-09-15T15:15:48.744Z,21.98
2022-09-15T15:18:43.330Z,23.13
2022-09-15T15:21:37.677Z,22.83
2022-09-15T15:24:26.182Z,23.30
2022-09-15T15:27:41.876Z,23.15
2022-09-15T15:30:36.309Z,25.17
2022-09-15T15:33:28.536Z,25.33
2022-09-15T15:36:22.813Z,26.52
2022-09-15T15:39:25.599Z,27.98
2022-09-15T15:42:16.773Z,30.67
2022-09-15T15:45:23.781Z,31.40
2022-09-15T15:48:12.111Z,33.10
2022-09-15T15:51:09.781Z,34.95
2022-09-15T15:53:59.604Z,37.20
2022-09-15T15:56:56.822Z,37.70
2022-09-15T15:59:48.175Z,40.05
2022-09-15T16:02:36.831Z,41.17
2022-09-15T16:05:31.560Z,43.47
2022-09-15T16:08:25.638Z,46.00
2022-09-15T16:11:17.075Z,46.25
2022-09-15T16:14:05.456Z,49.17
2022-09-15T16:16:59.937Z,51.75
2022-09-15T16:19:48.868Z,52.85
2022-09-15T16:22:43.692Z,55.50
2022-09-15T16:25:43.031Z,57.08
2022-09-15T16:28:33.132Z,59.92
2022-09-15T16:31:30.447Z,61.65
2022-09-15T16:34:19.548Z,63.25
2022-09-15T16:37:16.947Z,64.80
2022-09-15T16:40:06.606Z,64.28
2022-09-15T16:43:01.591Z,65.18
2022-09-15T16:45:52.675Z,65.88
2022-09-15T16:48:42.838Z,67.03
2022-09-15T16:51:40.121Z,68.20
2022-09-15T16:54:28.605Z,69.05
2022-09-15T16:57:25.845Z,69.93
2022-09-15T17:00:15.529Z,70.93
2022-09-15T17:03:18.273Z,73.55
2022-09-15T17:06:07.479Z,76.70
2022-09-15T17:08:55.772Z,73.97
2022-09-15T17:11:44.015Z,75.57
2022-09-15T17:14:32.275Z,75.18
2022-09-15T17:17:26.708Z,72.57
2022-09-15T17:20:17.868Z,73.43
2022-09-15T17:23:17.469Z,77.32
2022-09-15T17:26:07.882Z,80.40
2022-09-15T17:29:02.298Z,78.22
2022-09-15T17:31:50.680Z,78.15
2022-09-15T17:34:45.126Z,78.57
2022-09-15T17:37:35.086Z,78.83
2022-09-15T17:40:30.455Z,79.13
2022-09-15T17:43:20.591Z,77.10
2022-09-15T17:46:09.166Z,76.33
2022-09-15T17:48:57.697Z,77.20
2022-09-15T17:51:46.098Z,79.55
2022-09-15T17:54:45.271Z,80.35
2022-09-15T17:57:33.574Z,79.90
2022-09-15T18:00:33.462Z,78.17
2022-09-15T18:03:27.025Z,73.13
2022-09-15T18:06:15.447Z,73.27
2022-09-15T18:09:09.997Z,75.87
2022-09-15T18:12:00.200Z,77.10
2022-09-15T18:14:54.335Z,75.90
2022-09-15T18:17:43.613Z,76.90
2022-09-15T18:20:34.166Z,76.23
2022-09-15T18:23:24.739Z,75.27
2022-09-15T18:26:13.122Z,74.30
2022-09-15T18:29:03.610Z,70.87
2022-09-15T18:31:53.187Z,69.20
2022-09-15T18:34:41.686Z,66.80
2022-09-15T18:37:36.968Z,65.93
2022-09-15T18:40:26.456Z,64.63
2022-09-15T18:43:26.576Z,64.00
2022-09-15T18:46:17.523Z,63.17
2022-09-15T18:49:09.598Z,61.33
2022-09-15T18:51:59.346Z,59.90
2022-09-15T18:54:54.173Z,58.90
2022-09-15T18:57:43.119Z,58.03
2022-09-15T19:00:37.740Z,57.37
2022-09-15T19:03:27.556Z,55.03
2022-09-15T19:06:22.271Z,53.53
2022-09-15T19:09:11.091Z,54.93
2022-09-15T19:11:59.410Z,55.50
2022-09-15T19:14:48.506Z,57.50
2022-09-15T19:17:38.371Z,58.83
2022-09-15T19:20:28.067Z,60.57
2022-09-15T19:23:22.180Z,60.90
2022-09-15T19:26:13.921Z,60.87
2022-09-15T19:29:03.387Z,61.13
2022-09-15T19:32:00.748Z,61.27
2022-09-15T19:34:49.395Z,62.87
2022-09-15T19:37:48.776Z,64.47
2022-09-15T19:40:37.157Z,67.00
2022-09-15T19:43:25.625Z,69.03
2022-09-15T19:46:15.382Z,70.57
2022-09-15T19:49:04.484Z,72.47
2022-09-15T19:51:55.608Z,73.73
2022-09-15T19:54:54.332Z,73.33
2022-09-15T19:57:43.688Z,77.10
2022-09-15T20:00:40.959Z,77.77
2022-09-15T20:03:30.155Z,77.17
2022-09-15T20:06:19.066Z,78.13
2022-09-15T20:09:08.806Z,78.47
2022-09-15T20:12:03.771Z,79.43
2022-09-15T20:14:53.407Z,80.10
2022-09-15T20:17:51.762Z,81.47
2022-09-15T20:20:41.832Z,84.80
2022-09-15T20:23:36.859Z,84.07
2022-09-15T20:26:26.756Z,84.80
2022-09-15T20:29:19.010Z,83.90
2022-09-15T20:32:07.773Z,83.90
2022-09-15T20:34:57.410Z,83.70
2022-09-15T20:37:46.626Z,85.07
2022-09-15T20:40:35.397Z,85.03
2022-09-15T20:43:33.363Z,85.83
2022-09-15T20:46:24.735Z,86.37
2022-09-15T20:49:14.393Z,85.93
2022-09-15T20:52:03.877Z,86.77
2022-09-15T20:54:53.002Z,87.40
2022-09-15T20:57:41.740Z,90.33
2022-09-15T21:00:33.803Z,92.13
2022-09-15T21:03:24.427Z,93.43
2022-09-15T21:06:24.191Z,92.53
2022-09-15T21:09:12.819Z,92.33
2022-09-15T21:12:10.617Z,93.27
2022-09-15T21:14:59.323Z,94.53
2022-09-15T21:17:47.993Z,91.70
2022-09-15T21:20:38.283Z,90.90
2022-09-15T21:23:37.953Z,91.37
2022-09-15T21:26:28.055Z,91.77
2022-09-15T21:29:26.507Z,91.90
2022-09-15T21:32:15.304Z,92.60
2022-09-15T21:35:12.884Z,90.83
2022-09-15T21:38:02.943Z,92.03
2022-09-15T21:40:51.571Z,92.07
2022-09-15T21:43:50.355Z,91.87
2022-09-15T21:46:39.003Z,93.33
2022-09-15T21:49:27.650Z,92.33
2022-09-15T21:52:16.275Z,92.07
2022-09-15T21:55:15.515Z,93.03
2022-09-15T21:58:04.238Z,94.20
2022-09-15T22:01:10.872Z,93.17
2022-09-15T22:04:01.488Z,95.00
2022-09-15T22:06:50.398Z,94.37
2022-09-15T22:09:44.855Z,93.60
2022-09-15T22:12:34.940Z,94.30
2022-09-15T22:15:29.876Z,93.27
2022-09-15T22:18:18.632Z,95.57
2022-09-15T22:21:09.954Z,94.20
2022-09-15T22:23:59.735Z,95.93
2022-09-15T22:26:54.607Z,92.93
2022-09-15T22:29:44.710Z,94.47
2022-09-15T22:32:39.877Z,95.23
2022-09-15T22:35:28.628Z,93.83
2022-09-15T22:38:17.350Z,93.67
2022-09-15T22:41:07.288Z,93.30
2022-09-15T22:44:05.855Z,94.53
2022-09-15T22:46:57.781Z,92.97
2022-09-15T22:49:46.506Z,89.77
2022-09-15T22:52:41.083Z,89.63
2022-09-15T22:55:31.470Z,88.87
2022-09-15T22:58:26.012Z,88.37
2022-09-15T23:01:17.017Z,86.77
2022-09-15T23:04:06.787Z,85.97
2022-09-15T23:07:04.497Z,84.70
2022-09-15T23:09:52.825Z,85.90
2022-09-15T23:12:50.091Z,84.30
2022-09-15T23:15:38.337Z,83.60
2022-09-15T23:18:35.820Z,84.57
2022-09-15T23:21:26.029Z,83.50
2022-09-15T23:24:23.989Z,82.90
2022-09-15T23:27:12.283Z,82.90
2022-09-15T23:30:10.724Z,83.60
2022-09-15T23:32:59.001Z,83.97
2022-09-15T23:35:56.365Z,84.03
2022-09-15T23:38:47.153Z,83.80
2022-09-15T23:41:36.856Z,80.70
2022-09-15T23:44:33.868Z,81.97
2022-09-15T23:47:22.205Z,81.57
2022-09-15T23:50:19.555Z,79.90
2022-09-15T23:53:08.159Z,81.80
2022-09-15T23:56:07.571Z,80.23
2022-09-15T23:58:55.951Z,80.63
